sensor_id;sensor_type;location;lat;lon;timestamp;temperature;humidity
7842;DHT22;3966;51.052;13.820;2023-04-03T00:00:57;3.60;99.90
7842;DHT22;3966;51.052;13.820;2023-04-03T00:03:23;3.60;99.90
7842;DHT22;3966;51.052;13.820;2023-04-03T00:05:48;3.50;99.90
7842;DHT22;3966;51.052;13.820;2023-04-03T00:08:14;3.60;99.90
7842;DHT22;3966;51.052;13.820;2023-04-03T00:10:40;3.50;99.90
7842;DHT22;3966;51.052;13.820;2023-04-03T00:13:07;3.50;99.90
7842;DHT22;3966;51.052;13.820;2023-04-03T00:15:34;3.40;99.90
7842;DHT22;3966;51.052;13.820;2023-04-03T00:18:00;3.40;99.90
7842;DHT22;3966;51.052;13.820;2023-04-03T00:20:26;3.40;99.90
7842;DHT22;3966;51.052;13.820;2023-04-03T00:22:53;3.40;99.90
7842;DHT22;3966;51.052;13.820;2023-04-03T00:25:19;3.40;99.90
7842;DHT22;3966;51.052;13.820;2023-04-03T00:27:44;3.30;99.90
7842;DHT22;3966;51.052;13.820;2023-04-03T00:30:13;3.40;99.90
7842;DHT22;3966;51.052;13.820;2023-04-03T00:32:39;3.30;99.90
7842;DHT22;3966;51.052;13.820;2023-04-03T00:35:05;3.30;99.90
7842;DHT22;3966;51.052;13.820;2023-04-03T00:37:31;3.30;99.90
7842;DHT22;3966;51.052;13.820;2023-04-03T00:39:57;3.20;99.90
7842;DHT22;3966;51.052;13.820;2023-04-03T00:42:23;3.30;99.90
7842;DHT22;3966;51.052;13.820;2023-04-03T00:47:16;3.20;99.90
7842;DHT22;3966;51.052;13.820;2023-04-03T00:49:43;3.20;99.90
7842;DHT22;3966;51.052;13.820;2023-04-03T00:52:16;3.20;99.90
7842;DHT22;3966;51.052;13.820;2023-04-03T00:54:44;3.20;99.90
7842;DHT22;3966;51.052;13.820;2023-04-03T00:57:11;3.20;99.90
7842;DHT22;3966;51.052;13.820;2023-04-03T00:59:41;3.20;99.90
7842;DHT22;3966;51.052;13.820;2023-04-03T01:02:09;3.20;99.90
7842;DHT22;3966;51.052;13.820;2023-04-03T01:04:37;3.20;99.90
7842;DHT22;3966;51.052;13.820;2023-04-03T01:07:09;3.20;99.90
7842;DHT22;3966;51.052;13.820;2023-04-03T01:09:36;3.10;99.90
7842;DHT22;3966;51.052;13.820;2023-04-03T01:14:43;3.10;99.90
7842;DHT22;3966;51.052;13.820;2023-04-03T01:25:35;3.10;99.90
7842;DHT22;3966;51.052;13.820;2023-04-03T01:28:02;3.10;99.90
7842;DHT22;3966;51.052;13.820;2023-04-03T01:30:32;3.10;99.90
7842;DHT22;3966;51.052;13.820;2023-04-03T01:32:58;3.00;99.90
7842;DHT22;3966;51.052;13.820;2023-04-03T01:35:24;3.00;99.90
7842;DHT22;3966;51.052;13.820;2023-04-03T01:37:50;3.00;99.90
7842;DHT22;3966;51.052;13.820;2023-04-03T01:40:16;2.90;99.90
7842;DHT22;3966;51.052;13.820;2023-04-03T01:42:42;2.90;99.90
7842;DHT22;3966;51.052;13.820;2023-04-03T01:45:08;2.80;99.90
7842;DHT22;3966;51.052;13.820;2023-04-03T01:47:33;2.70;99.90
7842;DHT22;3966;51.052;13.820;2023-04-03T01:49:59;2.70;99.90
7842;DHT22;3966;51.052;13.820;2023-04-03T01:52:24;2.80;99.90
7842;DHT22;3966;51.052;13.820;2023-04-03T01:54:50;2.70;99.90
7842;DHT22;3966;51.052;13.820;2023-04-03T01:57:16;2.70;99.90
7842;DHT22;3966;51.052;13.820;2023-04-03T01:59:42;2.70;99.90
7842;DHT22;3966;51.052;13.820;2023-04-03T02:02:07;2.50;99.90
7842;DHT22;3966;51.052;13.820;2023-04-03T02:04:33;2.40;99.90
7842;DHT22;3966;51.052;13.820;2023-04-03T02:06:59;2.30;99.90
7842;DHT22;3966;51.052;13.820;2023-04-03T02:09:24;2.30;99.90
7842;DHT22;3966;51.052;13.820;2023-04-03T02:11:52;2.30;99.90
7842;DHT22;3966;51.052;13.820;2023-04-03T02:14:18;2.40;99.90
7842;DHT22;3966;51.052;13.820;2023-04-03T02:16:43;2.40;99.90
7842;DHT22;3966;51.052;13.820;2023-04-03T02:19:09;2.40;99.90
7842;DHT22;3966;51.052;13.820;2023-04-03T02:21:35;2.20;99.90
7842;DHT22;3966;51.052;13.820;2023-04-03T02:24:00;2.20;99.90
7842;DHT22;3966;51.052;13.820;2023-04-03T02:26:26;2.10;99.90
7842;DHT22;3966;51.052;13.820;2023-04-03T02:28:52;2.10;99.90
7842;DHT22;3966;51.052;13.820;2023-04-03T02:31:17;1.90;99.90
7842;DHT22;3966;51.052;13.820;2023-04-03T02:33:43;1.90;99.90
7842;DHT22;3966;51.052;13.820;2023-04-03T02:36:09;2.00;99.90
7842;DHT22;3966;51.052;13.820;2023-04-03T02:38:35;2.10;99.90
7842;DHT22;3966;51.052;13.820;2023-04-03T02:41:02;2.00;99.90
7842;DHT22;3966;51.052;13.820;2023-04-03T02:43:29;2.00;99.90
7842;DHT22;3966;51.052;13.820;2023-04-03T02:45:55;2.00;99.90
7842;DHT22;3966;51.052;13.820;2023-04-03T02:48:21;2.00;99.90
7842;DHT22;3966;51.052;13.820;2023-04-03T02:50:46;1.90;99.90
7842;DHT22;3966;51.052;13.820;2023-04-03T02:53:12;1.90;99.90
7842;DHT22;3966;51.052;13.820;2023-04-03T02:55:37;1.80;99.90
7842;DHT22;3966;51.052;13.820;2023-04-03T02:58:03;1.80;99.90
7842;DHT22;3966;51.052;13.820;2023-04-03T03:00:29;1.80;99.90
7842;DHT22;3966;51.052;13.820;2023-04-03T03:02:55;1.70;99.90
7842;DHT22;3966;51.052;13.820;2023-04-03T03:05:21;1.70;99.90
7842;DHT22;3966;51.052;13.820;2023-04-03T03:07:47;1.70;99.90
7842;DHT22;3966;51.052;13.820;2023-04-03T03:10:13;1.70;99.90
7842;DHT22;3966;51.052;13.820;2023-04-03T03:12:38;1.70;99.90
7842;DHT22;3966;51.052;13.820;2023-04-03T03:15:04;1.60;99.90
7842;DHT22;3966;51.052;13.820;2023-04-03T03:17:30;1.50;99.90
7842;DHT22;3966;51.052;13.820;2023-04-03T03:19:55;1.40;99.90
7842;DHT22;3966;51.052;13.820;2023-04-03T03:22:21;1.40;99.90
7842;DHT22;3966;51.052;13.820;2023-04-03T03:24:47;1.40;99.90
7842;DHT22;3966;51.052;13.820;2023-04-03T03:27:12;1.30;99.90
7842;DHT22;3966;51.052;13.820;2023-04-03T03:29:38;1.20;99.90
7842;DHT22;3966;51.052;13.820;2023-04-03T03:32:04;1.20;99.90
7842;DHT22;3966;51.052;13.820;2023-04-03T03:34:29;1.20;99.90
7842;DHT22;3966;51.052;13.820;2023-04-03T03:36:55;1.20;99.90
7842;DHT22;3966;51.052;13.820;2023-04-03T03:39:21;1.20;99.90
7842;DHT22;3966;51.052;13.820;2023-04-03T03:41:47;1.20;99.90
7842;DHT22;3966;51.052;13.820;2023-04-03T03:44:12;1.10;99.90
7842;DHT22;3966;51.052;13.820;2023-04-03T03:46:38;1.00;99.90
7842;DHT22;3966;51.052;13.820;2023-04-03T03:49:04;1.10;99.90
7842;DHT22;3966;51.052;13.820;2023-04-03T03:51:29;1.00;99.90
7842;DHT22;3966;51.052;13.820;2023-04-03T03:53:55;1.00;99.90
7842;DHT22;3966;51.052;13.820;2023-04-03T03:56:21;0.90;99.90
7842;DHT22;3966;51.052;13.820;2023-04-03T03:58:46;0.90;99.90
7842;DHT22;3966;51.052;13.820;2023-04-03T04:01:12;0.90;99.90
7842;DHT22;3966;51.052;13.820;2023-04-03T04:03:38;0.90;99.90
7842;DHT22;3966;51.052;13.820;2023-04-03T04:06:03;0.90;99.90
7842;DHT22;3966;51.052;13.820;2023-04-03T04:08:29;0.80;99.90
7842;DHT22;3966;51.052;13.820;2023-04-03T04:10:55;0.80;99.90
7842;DHT22;3966;51.052;13.820;2023-04-03T04:13:21;0.80;99.90
7842;DHT22;3966;51.052;13.820;2023-04-03T04:15:46;0.70;99.90
7842;DHT22;3966;51.052;13.820;2023-04-03T04:18:12;0.70;99.90
7842;DHT22;3966;51.052;13.820;2023-04-03T04:20:38;0.70;99.90
7842;DHT22;3966;51.052;13.820;2023-04-03T04:23:03;0.60;99.90
7842;DHT22;3966;51.052;13.820;2023-04-03T04:25:29;0.60;99.90
7842;DHT22;3966;51.052;13.820;2023-04-03T04:27:55;0.50;99.90
7842;DHT22;3966;51.052;13.820;2023-04-03T04:30:20;0.50;99.90
7842;DHT22;3966;51.052;13.820;2023-04-03T04:32:46;0.50;99.90
7842;DHT22;3966;51.052;13.820;2023-04-03T04:35:12;0.50;99.90
7842;DHT22;3966;51.052;13.820;2023-04-03T04:37:38;0.50;99.90
7842;DHT22;3966;51.052;13.820;2023-04-03T04:40:03;0.50;99.90
7842;DHT22;3966;51.052;13.820;2023-04-03T04:42:29;0.40;99.90
7842;DHT22;3966;51.052;13.820;2023-04-03T04:44:55;0.40;99.90
7842;DHT22;3966;51.052;13.820;2023-04-03T04:47:21;0.40;99.90
7842;DHT22;3966;51.052;13.820;2023-04-03T04:49:46;0.40;99.90
7842;DHT22;3966;51.052;13.820;2023-04-03T04:52:13;0.40;99.90
7842;DHT22;3966;51.052;13.820;2023-04-03T04:54:38;0.40;99.90
7842;DHT22;3966;51.052;13.820;2023-04-03T04:57:04;0.30;99.90
7842;DHT22;3966;51.052;13.820;2023-04-03T04:59:30;0.20;99.90
7842;DHT22;3966;51.052;13.820;2023-04-03T05:01:55;0.20;99.90
7842;DHT22;3966;51.052;13.820;2023-04-03T05:04:21;0.20;99.90
7842;DHT22;3966;51.052;13.820;2023-04-03T05:06:47;0.20;99.90
7842;DHT22;3966;51.052;13.820;2023-04-03T05:09:12;0.20;99.90
7842;DHT22;3966;51.052;13.820;2023-04-03T05:11:38;0.10;99.90
7842;DHT22;3966;51.052;13.820;2023-04-03T05:14:03;0.10;99.90
7842;DHT22;3966;51.052;13.820;2023-04-03T05:16:32;0.10;99.90
7842;DHT22;3966;51.052;13.820;2023-04-03T05:18:57;0.10;99.90
7842;DHT22;3966;51.052;13.820;2023-04-03T05:21:23;0.10;99.90
7842;DHT22;3966;51.052;13.820;2023-04-03T05:23:51;0.20;99.90
7842;DHT22;3966;51.052;13.820;2023-04-03T05:26:17;0.10;99.90
7842;DHT22;3966;51.052;13.820;2023-04-03T05:28:43;0.10;99.90
7842;DHT22;3966;51.052;13.820;2023-04-03T05:31:08;0.20;99.90
7842;DHT22;3966;51.052;13.820;2023-04-03T05:33:34;0.20;99.90
7842;DHT22;3966;51.052;13.820;2023-04-03T05:36:04;0.20;99.90
7842;DHT22;3966;51.052;13.820;2023-04-03T05:38:31;0.10;99.90
7842;DHT22;3966;51.052;13.820;2023-04-03T05:40:57;0.20;99.90
7842;DHT22;3966;51.052;13.820;2023-04-03T05:43:22;0.30;99.90
7842;DHT22;3966;51.052;13.820;2023-04-03T05:45:48;0.20;99.90
7842;DHT22;3966;51.052;13.820;2023-04-03T05:48:14;0.30;99.90
7842;DHT22;3966;51.052;13.820;2023-04-03T05:50:39;0.30;99.90
7842;DHT22;3966;51.052;13.820;2023-04-03T05:53:21;0.30;99.90
7842;DHT22;3966;51.052;13.820;2023-04-03T05:55:47;0.40;99.90
7842;DHT22;3966;51.052;13.820;2023-04-03T05:58:13;0.50;99.90
7842;DHT22;3966;51.052;13.820;2023-04-03T06:00:39;0.50;99.90
7842;DHT22;3966;51.052;13.820;2023-04-03T06:03:05;0.50;99.90
7842;DHT22;3966;51.052;13.820;2023-04-03T06:05:31;0.60;99.90
7842;DHT22;3966;51.052;13.820;2023-04-03T06:07:57;0.40;99.90
7842;DHT22;3966;51.052;13.820;2023-04-03T06:10:23;0.40;99.90
7842;DHT22;3966;51.052;13.820;2023-04-03T06:12:49;0.40;99.90
7842;DHT22;3966;51.052;13.820;2023-04-03T06:15:15;0.50;99.90
7842;DHT22;3966;51.052;13.820;2023-04-03T06:17:42;0.60;99.90
7842;DHT22;3966;51.052;13.820;2023-04-03T06:20:08;0.70;99.90
7842;DHT22;3966;51.052;13.820;2023-04-03T06:22:35;0.70;99.90
7842;DHT22;3966;51.052;13.820;2023-04-03T06:25:00;0.80;99.90
7842;DHT22;3966;51.052;13.820;2023-04-03T06:27:26;0.80;99.90
7842;DHT22;3966;51.052;13.820;2023-04-03T06:29:52;0.90;99.90
7842;DHT22;3966;51.052;13.820;2023-04-03T06:32:18;1.00;99.90
7842;DHT22;3966;51.052;13.820;2023-04-03T06:34:43;1.00;99.90
7842;DHT22;3966;51.052;13.820;2023-04-03T06:37:18;1.00;99.90
7842;DHT22;3966;51.052;13.820;2023-04-03T06:39:45;1.00;99.90
7842;DHT22;3966;51.052;13.820;2023-04-03T06:42:11;1.00;99.90
7842;DHT22;3966;51.052;13.820;2023-04-03T06:44:36;1.20;99.90
7842;DHT22;3966;51.052;13.820;2023-04-03T06:47:02;1.30;99.90
7842;DHT22;3966;51.052;13.820;2023-04-03T06:49:28;1.30;99.90
7842;DHT22;3966;51.052;13.820;2023-04-03T06:51:54;1.40;99.90
7842;DHT22;3966;51.052;13.820;2023-04-03T06:54:22;1.40;99.90
7842;DHT22;3966;51.052;13.820;2023-04-03T06:56:48;1.40;99.90
7842;DHT22;3966;51.052;13.820;2023-04-03T06:59:14;1.50;99.90
7842;DHT22;3966;51.052;13.820;2023-04-03T07:01:40;1.40;99.90
7842;DHT22;3966;51.052;13.820;2023-04-03T07:04:07;1.40;99.90
7842;DHT22;3966;51.052;13.820;2023-04-03T07:06:33;1.50;99.90
7842;DHT22;3966;51.052;13.820;2023-04-03T07:09:00;1.50;99.90
7842;DHT22;3966;51.052;13.820;2023-04-03T07:11:26;1.60;99.90
7842;DHT22;3966;51.052;13.820;2023-04-03T07:13:52;1.50;99.90
7842;DHT22;3966;51.052;13.820;2023-04-03T07:16:19;1.40;99.90
7842;DHT22;3966;51.052;13.820;2023-04-03T07:18:45;1.60;99.90
7842;DHT22;3966;51.052;13.820;2023-04-03T07:21:11;1.60;99.90
7842;DHT22;3966;51.052;13.820;2023-04-03T07:23:37;1.80;99.90
7842;DHT22;3966;51.052;13.820;2023-04-03T07:26:03;2.00;99.90
7842;DHT22;3966;51.052;13.820;2023-04-03T07:28:29;2.00;99.90
7842;DHT22;3966;51.052;13.820;2023-04-03T07:31:07;1.80;99.90
7842;DHT22;3966;51.052;13.820;2023-04-03T07:33:34;1.70;99.90
7842;DHT22;3966;51.052;13.820;2023-04-03T07:36:01;1.50;99.90
7842;DHT22;3966;51.052;13.820;2023-04-03T07:38:27;1.60;99.90
7842;DHT22;3966;51.052;13.820;2023-04-03T07:40:53;1.60;99.90
7842;DHT22;3966;51.052;13.820;2023-04-03T07:43:20;1.70;99.90
7842;DHT22;3966;51.052;13.820;2023-04-03T07:45:47;1.70;99.90
7842;DHT22;3966;51.052;13.820;2023-04-03T07:48:16;1.60;99.90
7842;DHT22;3966;51.052;13.820;2023-04-03T07:50:43;1.80;99.90
7842;DHT22;3966;51.052;13.820;2023-04-03T07:53:08;1.70;99.90
7842;DHT22;3966;51.052;13.820;2023-04-03T07:55:35;1.60;99.90
7842;DHT22;3966;51.052;13.820;2023-04-03T07:58:05;1.60;99.90
7842;DHT22;3966;51.052;13.820;2023-04-03T08:00:31;1.70;99.90
7842;DHT22;3966;51.052;13.820;2023-04-03T08:02:57;1.70;99.90
7842;DHT22;3966;51.052;13.820;2023-04-03T08:05:22;1.50;99.90
7842;DHT22;3966;51.052;13.820;2023-04-03T08:07:48;1.50;99.90
7842;DHT22;3966;51.052;13.820;2023-04-03T08:10:14;1.60;99.90
7842;DHT22;3966;51.052;13.820;2023-04-03T08:12:40;1.80;99.90
7842;DHT22;3966;51.052;13.820;2023-04-03T08:15:07;1.80;99.90
7842;DHT22;3966;51.052;13.820;2023-04-03T08:17:34;2.00;99.90
7842;DHT22;3966;51.052;13.820;2023-04-03T08:20:00;2.00;99.90
7842;DHT22;3966;51.052;13.820;2023-04-03T08:22:26;2.00;99.90
7842;DHT22;3966;51.052;13.820;2023-04-03T08:24:51;1.90;99.90
7842;DHT22;3966;51.052;13.820;2023-04-03T08:27:17;1.80;99.90
7842;DHT22;3966;51.052;13.820;2023-04-03T08:29:43;1.90;99.90
7842;DHT22;3966;51.052;13.820;2023-04-03T08:32:08;2.00;99.90
7842;DHT22;3966;51.052;13.820;2023-04-03T08:34:34;2.10;99.90
7842;DHT22;3966;51.052;13.820;2023-04-03T08:37:01;2.30;99.90
7842;DHT22;3966;51.052;13.820;2023-04-03T08:39:27;2.20;99.90
7842;DHT22;3966;51.052;13.820;2023-04-03T08:41:56;2.20;99.90
7842;DHT22;3966;51.052;13.820;2023-04-03T08:44:39;2.30;99.90
7842;DHT22;3966;51.052;13.820;2023-04-03T08:47:24;2.20;99.90
7842;DHT22;3966;51.052;13.820;2023-04-03T08:50:10;2.20;99.90
7842;DHT22;3966;51.052;13.820;2023-04-03T08:52:47;2.10;99.90
7842;DHT22;3966;51.052;13.820;2023-04-03T08:55:31;2.30;99.90
7842;DHT22;3966;51.052;13.820;2023-04-03T08:58:07;2.30;99.90
7842;DHT22;3966;51.052;13.820;2023-04-03T09:03:16;2.70;99.90
7842;DHT22;3966;51.052;13.820;2023-04-03T09:05:51;2.60;99.90
7842;DHT22;3966;51.052;13.820;2023-04-03T09:08:30;2.70;99.90
7842;DHT22;3966;51.052;13.820;2023-04-03T09:11:12;2.70;99.90
7842;DHT22;3966;51.052;13.820;2023-04-03T09:16:39;3.20;99.90
7842;DHT22;3966;51.052;13.820;2023-04-03T09:19:15;3.10;99.90
7842;DHT22;3966;51.052;13.820;2023-04-03T09:21:41;3.10;99.90
7842;DHT22;3966;51.052;13.820;2023-04-03T09:24:10;3.10;99.90
7842;DHT22;3966;51.052;13.820;2023-04-03T09:26:48;3.50;99.90
7842;DHT22;3966;51.052;13.820;2023-04-03T09:29:22;3.90;99.90
7842;DHT22;3966;51.052;13.820;2023-04-03T09:31:50;3.80;99.90
7842;DHT22;3966;51.052;13.820;2023-04-03T09:34:23;3.70;99.90
7842;DHT22;3966;51.052;13.820;2023-04-03T09:36:57;3.60;99.90
7842;DHT22;3966;51.052;13.820;2023-04-03T09:39:25;3.70;99.90
7842;DHT22;3966;51.052;13.820;2023-04-03T09:42:04;3.60;99.90
7842;DHT22;3966;51.052;13.820;2023-04-03T09:44:32;3.20;99.90
7842;DHT22;3966;51.052;13.820;2023-04-03T09:46:59;3.30;99.90
7842;DHT22;3966;51.052;13.820;2023-04-03T09:49:25;3.50;99.90
7842;DHT22;3966;51.052;13.820;2023-04-03T09:51:51;3.60;99.90
7842;DHT22;3966;51.052;13.820;2023-04-03T09:54:33;3.70;99.90
7842;DHT22;3966;51.052;13.820;2023-04-03T09:57:15;3.90;99.90
7842;DHT22;3966;51.052;13.820;2023-04-03T09:59:47;3.90;99.90
7842;DHT22;3966;51.052;13.820;2023-04-03T10:02:32;4.10;99.90
7842;DHT22;3966;51.052;13.820;2023-04-03T10:04:59;4.40;99.90
7842;DHT22;3966;51.052;13.820;2023-04-03T10:07:35;5.00;99.90
7842;DHT22;3966;51.052;13.820;2023-04-03T10:10:19;5.30;99.90
7842;DHT22;3966;51.052;13.820;2023-04-03T10:12:48;5.40;99.90
7842;DHT22;3966;51.052;13.820;2023-04-03T10:15:17;4.80;99.90
7842;DHT22;3966;51.052;13.820;2023-04-03T10:18:06;4.70;99.90
7842;DHT22;3966;51.052;13.820;2023-04-03T10:20:45;4.60;99.90
7842;DHT22;3966;51.052;13.820;2023-04-03T10:23:19;4.30;99.90
7842;DHT22;3966;51.052;13.820;2023-04-03T10:31:45;4.30;99.90
7842;DHT22;3966;51.052;13.820;2023-04-03T10:42:43;5.00;99.90
7842;DHT22;3966;51.052;13.820;2023-04-03T10:58:38;5.30;99.90
7842;DHT22;3966;51.052;13.820;2023-04-03T11:01:51;5.10;99.90
7842;DHT22;3966;51.052;13.820;2023-04-03T11:04:01;5.00;99.90
7842;DHT22;3966;51.052;13.820;2023-04-03T11:06:43;4.80;99.90
7842;DHT22;3966;51.052;13.820;2023-04-03T11:09:24;4.80;99.90
7842;DHT22;3966;51.052;13.820;2023-04-03T11:11:55;4.80;99.90
7842;DHT22;3966;51.052;13.820;2023-04-03T11:14:29;4.80;99.90
7842;DHT22;3966;51.052;13.820;2023-04-03T11:20:08;5.00;99.90
7842;DHT22;3966;51.052;13.820;2023-04-03T11:22:41;5.10;99.10
7842;DHT22;3966;51.052;13.820;2023-04-03T11:27:45;5.20;99.10
7842;DHT22;3966;51.052;13.820;2023-04-03T11:30:46;5.20;98.70
7842;DHT22;3966;51.052;13.820;2023-04-03T11:33:41;5.40;98.80
7842;DHT22;3966;51.052;13.820;2023-04-03T11:36:23;5.70;98.80
7842;DHT22;3966;51.052;13.820;2023-04-03T11:38:54;5.40;99.20
7842;DHT22;3966;51.052;13.820;2023-04-03T11:41:26;5.50;99.60
7842;DHT22;3966;51.052;13.820;2023-04-03T11:44:35;5.60;99.80
7842;DHT22;3966;51.052;13.820;2023-04-03T11:47:06;5.40;98.90
7842;DHT22;3966;51.052;13.820;2023-04-03T11:50:02;5.20;97.50
7842;DHT22;3966;51.052;13.820;2023-04-03T12:11:28;5.30;99.50
7842;DHT22;3966;51.052;13.820;2023-04-03T12:48:54;5.30;98.90
7842;DHT22;3966;51.052;13.820;2023-04-03T12:51:34;5.10;99.30
7842;DHT22;3966;51.052;13.820;2023-04-03T12:54:14;5.10;99.90
7842;DHT22;3966;51.052;13.820;2023-04-03T12:56:41;5.20;99.90
7842;DHT22;3966;51.052;13.820;2023-04-03T12:59:23;5.10;99.90
7842;DHT22;3966;51.052;13.820;2023-04-03T13:01:59;5.20;99.90
7842;DHT22;3966;51.052;13.820;2023-04-03T13:04:27;5.20;99.80
7842;DHT22;3966;51.052;13.820;2023-04-03T13:06:53;5.40;99.90
7842;DHT22;3966;51.052;13.820;2023-04-03T13:09:25;5.30;99.20
7842;DHT22;3966;51.052;13.820;2023-04-03T13:14:24;5.50;98.30
7842;DHT22;3966;51.052;13.820;2023-04-03T13:17:13;5.60;98.00
7842;DHT22;3966;51.052;13.820;2023-04-03T13:19:39;5.50;98.10
7842;DHT22;3966;51.052;13.820;2023-04-03T13:24:58;5.60;99.00
7842;DHT22;3966;51.052;13.820;2023-04-03T13:27:24;5.50;97.80
7842;DHT22;3966;51.052;13.820;2023-04-03T13:29:53;5.40;99.30
7842;DHT22;3966;51.052;13.820;2023-04-03T13:32:25;5.20;99.50
7842;DHT22;3966;51.052;13.820;2023-04-03T13:34:51;5.20;99.90
7842;DHT22;3966;51.052;13.820;2023-04-03T13:37:35;5.10;99.90
7842;DHT22;3966;51.052;13.820;2023-04-03T13:42:35;5.20;99.70
7842;DHT22;3966;51.052;13.820;2023-04-03T13:45:23;5.20;99.50
7842;DHT22;3966;51.052;13.820;2023-04-03T13:47:53;5.40;99.90
7842;DHT22;3966;51.052;13.820;2023-04-03T13:50:23;5.50;99.50
7842;DHT22;3966;51.052;13.820;2023-04-03T13:53:08;5.50;99.30
7842;DHT22;3966;51.052;13.820;2023-04-03T13:55:39;5.80;99.60
7842;DHT22;3966;51.052;13.820;2023-04-03T13:58:26;6.20;98.20
7842;DHT22;3966;51.052;13.820;2023-04-03T14:00:55;6.50;96.80
7842;DHT22;3966;51.052;13.820;2023-04-03T14:03:30;6.80;96.00
7842;DHT22;3966;51.052;13.820;2023-04-03T14:05:57;7.00;94.80
7842;DHT22;3966;51.052;13.820;2023-04-03T14:08:22;7.10;92.60
7842;DHT22;3966;51.052;13.820;2023-04-03T14:10:49;7.20;91.80
7842;DHT22;3966;51.052;13.820;2023-04-03T14:13:16;6.70;92.20
7842;DHT22;3966;51.052;13.820;2023-04-03T14:15:42;6.20;93.60
7842;DHT22;3966;51.052;13.820;2023-04-03T14:18:16;6.10;94.90
7842;DHT22;3966;51.052;13.820;2023-04-03T14:20:43;5.70;96.00
7842;DHT22;3966;51.052;13.820;2023-04-03T14:23:09;5.60;96.80
7842;DHT22;3966;51.052;13.820;2023-04-03T14:25:35;5.40;96.80
7842;DHT22;3966;51.052;13.820;2023-04-03T14:28:01;5.20;97.20
7842;DHT22;3966;51.052;13.820;2023-04-03T14:30:37;5.10;97.10
7842;DHT22;3966;51.052;13.820;2023-04-03T14:33:03;5.10;96.60
7842;DHT22;3966;51.052;13.820;2023-04-03T14:35:28;4.90;96.10
7842;DHT22;3966;51.052;13.820;2023-04-03T14:37:54;4.90;96.30
7842;DHT22;3966;51.052;13.820;2023-04-03T14:40:25;5.00;96.80
7842;DHT22;3966;51.052;13.820;2023-04-03T14:42:52;5.50;97.00
7842;DHT22;3966;51.052;13.820;2023-04-03T14:45:21;6.40;96.60
7842;DHT22;3966;51.052;13.820;2023-04-03T14:47:54;6.70;94.60
7842;DHT22;3966;51.052;13.820;2023-04-03T14:50:24;5.80;96.40
7842;DHT22;3966;51.052;13.820;2023-04-03T14:52:53;5.40;97.10
7842;DHT22;3966;51.052;13.820;2023-04-03T14:55:21;5.30;98.30
7842;DHT22;3966;51.052;13.820;2023-04-03T14:57:47;5.00;98.80
7842;DHT22;3966;51.052;13.820;2023-04-03T15:00:15;5.20;99.20
7842;DHT22;3966;51.052;13.820;2023-04-03T15:02:41;5.10;99.20
7842;DHT22;3966;51.052;13.820;2023-04-03T15:05:09;4.90;99.20
7842;DHT22;3966;51.052;13.820;2023-04-03T15:07:50;4.70;99.50
7842;DHT22;3966;51.052;13.820;2023-04-03T15:10:26;4.70;99.20
7842;DHT22;3966;51.052;13.820;2023-04-03T15:12:53;4.70;99.40
7842;DHT22;3966;51.052;13.820;2023-04-03T15:15:20;4.70;99.20
7842;DHT22;3966;51.052;13.820;2023-04-03T15:17:50;4.70;99.00
7842;DHT22;3966;51.052;13.820;2023-04-03T15:20:18;4.70;98.90
7842;DHT22;3966;51.052;13.820;2023-04-03T15:22:45;4.90;98.70
7842;DHT22;3966;51.052;13.820;2023-04-03T15:25:11;5.50;97.70
7842;DHT22;3966;51.052;13.820;2023-04-03T15:27:37;6.60;95.60
7842;DHT22;3966;51.052;13.820;2023-04-03T15:30:04;7.70;93.00
7842;DHT22;3966;51.052;13.820;2023-04-03T15:32:31;7.30;92.60
7842;DHT22;3966;51.052;13.820;2023-04-03T15:34:57;6.70;92.30
7842;DHT22;3966;51.052;13.820;2023-04-03T15:37:23;6.00;93.70
7842;DHT22;3966;51.052;13.820;2023-04-03T15:39:48;5.80;94.50
7842;DHT22;3966;51.052;13.820;2023-04-03T15:42:14;5.60;94.70
7842;DHT22;3966;51.052;13.820;2023-04-03T15:44:40;5.20;95.40
7842;DHT22;3966;51.052;13.820;2023-04-03T15:47:06;5.00;96.10
7842;DHT22;3966;51.052;13.820;2023-04-03T15:49:33;5.00;97.10
7842;DHT22;3966;51.052;13.820;2023-04-03T15:52:00;5.10;96.70
7842;DHT22;3966;51.052;13.820;2023-04-03T15:54:27;4.90;96.70
7842;DHT22;3966;51.052;13.820;2023-04-03T15:56:54;4.80;97.30
7842;DHT22;3966;51.052;13.820;2023-04-03T15:59:21;4.80;97.70
7842;DHT22;3966;51.052;13.820;2023-04-03T16:01:47;4.80;98.00
7842;DHT22;3966;51.052;13.820;2023-04-03T16:04:14;4.70;98.00
7842;DHT22;3966;51.052;13.820;2023-04-03T16:06:40;4.70;98.20
7842;DHT22;3966;51.052;13.820;2023-04-03T16:09:07;4.70;98.90
7842;DHT22;3966;51.052;13.820;2023-04-03T16:11:33;4.60;99.30
7842;DHT22;3966;51.052;13.820;2023-04-03T16:14:02;4.50;99.20
7842;DHT22;3966;51.052;13.820;2023-04-03T16:16:28;4.50;99.20
7842;DHT22;3966;51.052;13.820;2023-04-03T16:18:55;4.60;99.90
7842;DHT22;3966;51.052;13.820;2023-04-03T16:21:21;4.60;99.40
7842;DHT22;3966;51.052;13.820;2023-04-03T16:23:48;4.60;99.10
7842;DHT22;3966;51.052;13.820;2023-04-03T16:26:13;4.60;99.40
7842;DHT22;3966;51.052;13.820;2023-04-03T16:28:39;4.60;99.20
7842;DHT22;3966;51.052;13.820;2023-04-03T16:31:06;4.50;99.40
7842;DHT22;3966;51.052;13.820;2023-04-03T16:33:33;4.60;99.20
7842;DHT22;3966;51.052;13.820;2023-04-03T16:35:58;4.50;99.60
7842;DHT22;3966;51.052;13.820;2023-04-03T16:38:24;4.60;99.60
7842;DHT22;3966;51.052;13.820;2023-04-03T16:40:50;4.50;99.60
7842;DHT22;3966;51.052;13.820;2023-04-03T16:43:17;4.40;99.90
7842;DHT22;3966;51.052;13.820;2023-04-03T16:45:43;4.30;99.90
7842;DHT22;3966;51.052;13.820;2023-04-03T16:48:10;4.40;99.90
7842;DHT22;3966;51.052;13.820;2023-04-03T16:50:35;4.30;99.90
7842;DHT22;3966;51.052;13.820;2023-04-03T16:53:01;4.20;99.90
7842;DHT22;3966;51.052;13.820;2023-04-03T16:55:28;4.20;99.90
7842;DHT22;3966;51.052;13.820;2023-04-03T16:57:54;4.20;99.90
7842;DHT22;3966;51.052;13.820;2023-04-03T17:00:20;4.20;99.90
7842;DHT22;3966;51.052;13.820;2023-04-03T17:02:46;4.10;99.90
7842;DHT22;3966;51.052;13.820;2023-04-03T17:05:12;4.00;99.90
7842;DHT22;3966;51.052;13.820;2023-04-03T17:07:37;4.00;99.90
7842;DHT22;3966;51.052;13.820;2023-04-03T17:10:03;4.10;99.90
7842;DHT22;3966;51.052;13.820;2023-04-03T17:12:29;4.00;99.90
7842;DHT22;3966;51.052;13.820;2023-04-03T17:14:55;4.00;99.90
7842;DHT22;3966;51.052;13.820;2023-04-03T17:17:24;3.90;99.90
7842;DHT22;3966;51.052;13.820;2023-04-03T17:19:51;4.00;99.90
7842;DHT22;3966;51.052;13.820;2023-04-03T17:22:19;3.90;99.90
7842;DHT22;3966;51.052;13.820;2023-04-03T17:24:45;3.80;99.90
7842;DHT22;3966;51.052;13.820;2023-04-03T17:27:10;3.70;99.90
7842;DHT22;3966;51.052;13.820;2023-04-03T17:29:36;3.60;99.90
7842;DHT22;3966;51.052;13.820;2023-04-03T17:32:02;3.60;99.90
7842;DHT22;3966;51.052;13.820;2023-04-03T17:34:28;3.60;99.90
7842;DHT22;3966;51.052;13.820;2023-04-03T17:36:53;3.70;99.90
7842;DHT22;3966;51.052;13.820;2023-04-03T17:39:19;3.70;99.90
7842;DHT22;3966;51.052;13.820;2023-04-03T17:41:45;3.60;99.90
7842;DHT22;3966;51.052;13.820;2023-04-03T17:44:11;3.60;99.90
7842;DHT22;3966;51.052;13.820;2023-04-03T17:46:37;3.50;99.90
7842;DHT22;3966;51.052;13.820;2023-04-03T17:49:02;3.50;99.90
7842;DHT22;3966;51.052;13.820;2023-04-03T17:51:29;3.50;99.90
7842;DHT22;3966;51.052;13.820;2023-04-03T17:53:56;3.50;99.90
7842;DHT22;3966;51.052;13.820;2023-04-03T17:56:24;3.40;99.90
7842;DHT22;3966;51.052;13.820;2023-04-03T17:58:52;3.40;99.90
7842;DHT22;3966;51.052;13.820;2023-04-03T18:01:21;3.30;99.90
7842;DHT22;3966;51.052;13.820;2023-04-03T18:03:47;3.30;99.90